Time;durP1;ratioP1;P1;durP2;ratioP2;P2;SDS_P1;SDS_P2;PMS_P1;PMS_P2;Temp;Humidity;BMP_temperature;BMP_pressure;BME280_temperature;BME280_humidity;BME280_pressure;Samples;Min_cycle;Max_cycle;Signal;HPM_P1;HPM_P2
2022/10/30 00:01:06;;;;;;;0.20;0.20;;;;;;;;;;4967769;28;20446;-87
2022/10/30 00:03:32;;;;;;;0.20;0.20;;;;;;;;;;4967440;28;20418;-86
2022/10/30 00:05:58;;;;;;;0.10;0.10;;;;;;;;;;4951244;29;20417;-86
2022/10/30 00:08:24;;;;;;;0.60;0.30;;;;;;;;;;4951811;29;20441;-87
2022/10/30 00:10:50;;;;;;;0.10;0.10;;;;;;;;;;4951399;29;20430;-87
2022/10/30 00:13:16;;;;;;;0.13;0.13;;;;;;;;;;4950737;29;20444;-84
2022/10/30 00:15:47;;;;;;;0.10;0.10;;;;;;;;;;4951657;29;20440;-87
2022/10/30 00:18:13;;;;;;;0.30;0.30;;;;;;;;;;4968429;28;20414;-88
2022/10/30 00:20:39;;;;;;;0.10;0.10;;;;;;;;;;4967251;28;20417;-87
2022/10/30 00:23:05;;;;;;;0.20;0.20;;;;;;;;;;4951346;29;20456;-86
2022/10/30 00:25:33;;;;;;;0.20;0.20;;;;;;;;;;4949899;28;20414;-86
2022/10/30 00:27:59;;;;;;;0.10;0.10;;;;;;;;;;4950070;29;20826;-86
2022/10/30 00:30:25;;;;;;;0.10;0.10;;;;;;;;;;4950691;29;20440;-85
2022/10/30 00:32:51;;;;;;;0.10;0.10;;;;;;;;;;4951488;29;20445;-87
2022/10/30 00:35:18;;;;;;;0.10;0.10;;;;;;;;;;4950982;29;20426;-87
2022/10/30 00:37:44;;;;;;;0.20;0.20;;;;;;;;;;4950629;29;20476;-87
2022/10/30 00:40:19;;;;;;;0.10;0.10;;;;;;;;;;4966993;28;20992;-86
2022/10/30 00:42:45;;;;;;;0.10;0.10;;;;;;;;;;4967586;28;20418;-87
2022/10/30 00:45:16;;;;;;;0.10;0.10;;;;;;;;;;4951079;29;20426;-86
2022/10/30 00:47:47;;;;;;;0.17;0.17;;;;;;;;;;4967569;28;20417;-87
2022/10/30 00:50:17;;;;;;;1.40;0.60;;;;;;;;;;4967246;28;20489;-88
2022/10/30 00:52:54;;;;;;;0.10;0.10;;;;;;;;;;4966650;28;20480;-88
2022/10/30 00:55:27;;;;;;;0.20;0.20;;;;;;;;;;4967024;28;20413;-86
2022/10/30 00:57:53;;;;;;;0.20;0.20;;;;;;;;;;4950597;28;20650;-85
2022/10/30 01:00:21;;;;;;;0.30;0.30;;;;;;;;;;4951289;28;20421;-86
2022/10/30 01:02:48;;;;;;;0.10;0.10;;;;;;;;;;4966836;28;20504;-87
2022/10/30 01:05:17;;;;;;;0.10;0.10;;;;;;;;;;4951220;28;20414;-86
2022/10/30 01:07:43;;;;;;;0.10;0.10;;;;;;;;;;4966047;28;20421;-87
2022/10/30 01:10:10;;;;;;;0.28;0.28;;;;;;;;;;4966712;28;20789;-87
2022/10/30 01:12:37;;;;;;;0.10;0.10;;;;;;;;;;4950787;29;20413;-87
2022/10/30 01:15:03;;;;;;;0.10;0.10;;;;;;;;;;4950634;29;20422;-86
2022/10/30 01:17:32;;;;;;;0.13;0.13;;;;;;;;;;4949631;29;20477;-87
2022/10/30 01:20:01;;;;;;;0.10;0.10;;;;;;;;;;4950750;29;20766;-88
2022/10/30 01:22:46;;;;;;;0.10;0.10;;;;;;;;;;4950526;29;20426;-87
2022/10/30 01:25:51;;;;;;;0.10;0.10;;;;;;;;;;4950596;29;20422;-85
2022/10/30 01:28:32;;;;;;;2.30;0.90;;;;;;;;;;4967841;28;20927;-86
2022/10/30 01:31:13;;;;;;;0.10;0.10;;;;;;;;;;4952195;28;20431;-85
2022/10/30 01:33:59;;;;;;;1.90;0.80;;;;;;;;;;4949952;28;20913;-86
2022/10/30 01:36:45;;;;;;;0.10;0.10;;;;;;;;;;4950469;29;20480;-87
2022/10/30 01:39:19;;;;;;;0.10;0.10;;;;;;;;;;4953844;28;20410;-87
2022/10/30 01:41:45;;;;;;;0.10;0.10;;;;;;;;;;4953645;29;20414;-87
2022/10/30 01:44:24;;;;;;;0.43;0.43;;;;;;;;;;4955251;29;20426;-88
2022/10/30 01:46:53;;;;;;;0.20;0.20;;;;;;;;;;4969549;28;20440;-88
2022/10/30 01:49:19;;;;;;;0.10;0.10;;;;;;;;;;4953974;29;20433;-86
2022/10/30 01:52:00;;;;;;;0.20;0.20;;;;;;;;;;4953912;29;20916;-88
2022/10/30 01:54:38;;;;;;;0.10;0.10;;;;;;;;;;4954583;28;20422;-87
2022/10/30 01:57:21;;;;;;;1.67;1.10;;;;;;;;;;4969846;28;20426;-87
2022/10/30 01:59:59;;;;;;;0.40;0.40;;;;;;;;;;4969207;28;20785;-87
2022/10/30 02:02:25;;;;;;;0.10;0.10;;;;;;;;;;4953817;28;20924;-87
2022/10/30 02:04:51;;;;;;;0.10;0.10;;;;;;;;;;4970330;28;20413;-87
2022/10/30 02:07:18;;;;;;;0.10;0.10;;;;;;;;;;4954224;28;20410;-87
2022/10/30 02:09:44;;;;;;;0.10;0.10;;;;;;;;;;4952984;28;20878;-87
2022/10/30 02:12:10;;;;;;;0.10;0.10;;;;;;;;;;4954023;28;20905;-87
2022/10/30 02:14:38;;;;;;;1.60;0.70;;;;;;;;;;4953640;28;20429;-88
2022/10/30 02:17:06;;;;;;;0.10;0.10;;;;;;;;;;4953442;29;20429;-85
2022/10/30 02:19:32;;;;;;;0.10;0.10;;;;;;;;;;4969531;28;20418;-86
2022/10/30 02:21:58;;;;;;;0.10;0.10;;;;;;;;;;4953571;28;20901;-87
2022/10/30 02:24:24;;;;;;;0.10;0.10;;;;;;;;;;4953358;29;20420;-86
2022/10/30 02:26:50;;;;;;;0.17;0.17;;;;;;;;;;4969866;28;20905;-87
2022/10/30 02:29:19;;;;;;;0.60;0.50;;;;;;;;;;4969150;28;20909;-87
2022/10/30 02:31:45;;;;;;;0.10;0.10;;;;;;;;;;4954478;29;20425;-87
2022/10/30 02:34:11;;;;;;;0.50;0.50;;;;;;;;;;4953490;28;20424;-87
2022/10/30 02:36:38;;;;;;;0.10;0.10;;;;;;;;;;4953717;29;20422;-89
2022/10/30 02:39:05;;;;;;;0.10;0.10;;;;;;;;;;4952815;28;20425;-89
2022/10/30 02:41:31;;;;;;;0.25;0.25;;;;;;;;;;4953619;28;20426;-88
2022/10/30 02:43:57;;;;;;;0.10;0.10;;;;;;;;;;4968992;28;20473;-87
2022/10/30 02:46:23;;;;;;;0.10;0.10;;;;;;;;;;4950338;28;20501;-88
2022/10/30 02:48:49;;;;;;;0.10;0.10;;;;;;;;;;4967707;28;20434;-86
2022/10/30 02:51:15;;;;;;;0.00;0.00;;;;;;;;;;4952735;29;20421;-87
2022/10/30 02:53:41;;;;;;;0.20;0.20;;;;;;;;;;4952551;29;20569;-86
2022/10/30 02:56:09;;;;;;;0.00;0.00;;;;;;;;;;4952891;29;20417;-87
2022/10/30 02:58:35;;;;;;;0.05;0.05;;;;;;;;;;4937057;29;21058;-87
2022/10/30 03:01:08;;;;;;;0.10;0.10;;;;;;;;;;4952799;29;20924;-85
2022/10/30 03:03:34;;;;;;;0.10;0.10;;;;;;;;;;4968526;28;20425;-87
2022/10/30 03:06:01;;;;;;;0.20;0.20;;;;;;;;;;4968423;28;20418;-86
2022/10/30 03:08:27;;;;;;;0.10;0.10;;;;;;;;;;4968502;28;20426;-86
2022/10/30 03:10:58;;;;;;;0.10;0.10;;;;;;;;;;4952584;29;20510;-87
2022/10/30 03:13:24;;;;;;;0.30;0.30;;;;;;;;;;4968258;28;20422;-86
2022/10/30 03:15:50;;;;;;;0.10;0.10;;;;;;;;;;4953702;28;20405;-87
2022/10/30 03:18:16;;;;;;;0.80;0.70;;;;;;;;;;4954090;29;20429;-88
2022/10/30 03:20:42;;;;;;;0.10;0.10;;;;;;;;;;4953677;29;20418;-87
2022/10/30 03:23:08;;;;;;;0.70;0.50;;;;;;;;;;4952476;29;20825;-87
2022/10/30 03:25:34;;;;;;;0.40;0.40;;;;;;;;;;4969456;28;20413;-87
2022/10/30 03:28:00;;;;;;;0.20;0.20;;;;;;;;;;4968211;28;20437;-84
2022/10/30 03:30:26;;;;;;;0.00;0.00;;;;;;;;;;4952987;28;20505;-87
2022/10/30 03:32:52;;;;;;;0.10;0.10;;;;;;;;;;4952377;29;20422;-86
2022/10/30 03:35:18;;;;;;;0.10;0.10;;;;;;;;;;4968198;28;20428;-87
2022/10/30 03:37:44;;;;;;;0.10;0.10;;;;;;;;;;4952468;29;20735;-88
2022/10/30 03:40:10;;;;;;;0.10;0.10;;;;;;;;;;4951392;29;20416;-87
2022/10/30 03:42:40;;;;;;;0.08;0.08;;;;;;;;;;4952525;29;20421;-89
2022/10/30 03:45:06;;;;;;;0.10;0.10;;;;;;;;;;4967154;28;20897;-88
2022/10/30 03:47:32;;;;;;;0.10;0.10;;;;;;;;;;4952070;29;20417;-87
2022/10/30 03:49:58;;;;;;;0.10;0.10;;;;;;;;;;4967797;28;20438;-87
2022/10/30 03:52:24;;;;;;;0.03;0.03;;;;;;;;;;4951800;29;20461;-88
2022/10/30 03:54:50;;;;;;;0.30;0.30;;;;;;;;;;4967774;28;20794;-88
2022/10/30 03:57:16;;;;;;;0.03;0.03;;;;;;;;;;4951648;29;20477;-87
2022/10/30 03:59:42;;;;;;;0.10;0.10;;;;;;;;;;4951957;29;20426;-85
2022/10/30 04:02:08;;;;;;;0.10;0.10;;;;;;;;;;4951060;28;20416;-86
2022/10/30 04:04:34;;;;;;;0.08;0.08;;;;;;;;;;4952220;28;20441;-87
2022/10/30 04:07:00;;;;;;;0.10;0.10;;;;;;;;;;4952630;28;20770;-86
2022/10/30 04:09:26;;;;;;;0.70;0.50;;;;;;;;;;4951659;29;20855;-87
2022/10/30 04:11:52;;;;;;;0.40;0.40;;;;;;;;;;4951816;29;20422;-85
2022/10/30 04:14:18;;;;;;;0.10;0.10;;;;;;;;;;4951207;28;20445;-87
2022/10/30 04:16:46;;;;;;;0.10;0.10;;;;;;;;;;4950577;29;21600;-86
2022/10/30 04:19:12;;;;;;;0.05;0.05;;;;;;;;;;4951046;28;20901;-86
2022/10/30 04:21:38;;;;;;;0.10;0.10;;;;;;;;;;4951791;28;20481;-85
2022/10/30 04:24:04;;;;;;;0.10;0.10;;;;;;;;;;4951057;28;20476;-87
2022/10/30 04:26:30;;;;;;;0.10;0.10;;;;;;;;;;4951327;29;20794;-86
2022/10/30 04:28:56;;;;;;;0.10;0.10;;;;;;;;;;4951389;28;20540;-87
2022/10/30 04:31:22;;;;;;;0.10;0.10;;;;;;;;;;4951805;29;20774;-86
2022/10/30 04:33:48;;;;;;;0.10;0.10;;;;;;;;;;4967712;28;20911;-86
2022/10/30 04:36:16;;;;;;;0.10;0.10;;;;;;;;;;4951042;28;20418;-87
2022/10/30 04:38:42;;;;;;;0.20;0.20;;;;;;;;;;4951618;28;20452;-86
2022/10/30 04:41:08;;;;;;;0.05;0.05;;;;;;;;;;4951013;29;20460;-86
2022/10/30 04:43:34;;;;;;;0.10;0.10;;;;;;;;;;4951579;28;20451;-86
2022/10/30 04:46:04;;;;;;;0.10;0.10;;;;;;;;;;4951299;29;20766;-84
2022/10/30 04:48:33;;;;;;;0.10;0.10;;;;;;;;;;4967368;28;20441;-87
2022/10/30 04:50:59;;;;;;;0.10;0.10;;;;;;;;;;4967509;28;20556;-86
2022/10/30 04:53:25;;;;;;;0.40;0.40;;;;;;;;;;4950579;29;20429;-87
2022/10/30 04:55:55;;;;;;;0.20;0.20;;;;;;;;;;4950961;29;20414;-87
2022/10/30 04:58:21;;;;;;;0.50;0.50;;;;;;;;;;4966622;28;20428;-87
2022/10/30 05:00:47;;;;;;;0.13;0.13;;;;;;;;;;4966572;28;20920;-87
2022/10/30 05:03:19;;;;;;;0.30;0.30;;;;;;;;;;4967242;28;20921;-88
2022/10/30 05:05:45;;;;;;;0.10;0.10;;;;;;;;;;4951276;29;20425;-88
2022/10/30 05:08:11;;;;;;;0.20;0.20;;;;;;;;;;4949995;29;20500;-86
2022/10/30 05:10:40;;;;;;;0.00;0.00;;;;;;;;;;4966902;28;20569;-87
2022/10/30 05:13:06;;;;;;;0.10;0.10;;;;;;;;;;4953661;28;20932;-87
2022/10/30 05:15:32;;;;;;;0.80;0.80;;;;;;;;;;4973134;28;20472;-87
2022/10/30 05:17:58;;;;;;;0.10;0.10;;;;;;;;;;4972644;28;20424;-86
2022/10/30 05:20:24;;;;;;;0.10;0.10;;;;;;;;;;4956851;28;20500;-86
2022/10/30 05:22:54;;;;;;;0.10;0.10;;;;;;;;;;4957241;28;20457;-87
2022/10/30 05:25:20;;;;;;;0.10;0.10;;;;;;;;;;4973021;28;20425;-87
2022/10/30 05:27:46;;;;;;;0.10;0.10;;;;;;;;;;4973289;28;20419;-87
2022/10/30 05:30:12;;;;;;;0.10;0.10;;;;;;;;;;4956716;29;20414;-87
2022/10/30 05:32:38;;;;;;;0.10;0.10;;;;;;;;;;4957492;28;20480;-88
2022/10/30 05:35:05;;;;;;;0.10;0.10;;;;;;;;;;4957158;28;20761;-86
2022/10/30 05:37:31;;;;;;;0.10;0.10;;;;;;;;;;4973146;28;20421;-85
2022/10/30 05:39:57;;;;;;;0.10;0.10;;;;;;;;;;4972485;28;20421;-87
2022/10/30 05:42:23;;;;;;;0.10;0.10;;;;;;;;;;4956317;29;20424;-88
2022/10/30 05:44:49;;;;;;;0.10;0.10;;;;;;;;;;4973277;28;20488;-85
2022/10/30 05:47:15;;;;;;;0.10;0.10;;;;;;;;;;4972420;28;20417;-88
2022/10/30 05:49:41;;;;;;;0.90;0.70;;;;;;;;;;4956728;28;20433;-88
2022/10/30 05:52:07;;;;;;;0.20;0.20;;;;;;;;;;4957209;28;20422;-84
2022/10/30 05:54:33;;;;;;;0.00;0.00;;;;;;;;;;4972454;28;20417;-88
2022/10/30 05:56:59;;;;;;;0.30;0.30;;;;;;;;;;4956748;28;20414;-87
2022/10/30 05:59:25;;;;;;;0.10;0.10;;;;;;;;;;4956946;28;20421;-86
2022/10/30 06:01:51;;;;;;;0.10;0.10;;;;;;;;;;4972338;28;20923;-86
2022/10/30 06:04:17;;;;;;;0.22;0.22;;;;;;;;;;4972689;28;20415;-87
2022/10/30 06:06:43;;;;;;;0.10;0.10;;;;;;;;;;4956845;29;20975;-87
2022/10/30 06:09:09;;;;;;;0.10;0.10;;;;;;;;;;4972553;28;20920;-84
2022/10/30 06:11:35;;;;;;;0.08;0.08;;;;;;;;;;4956380;28;20425;-87
2022/10/30 06:14:01;;;;;;;0.10;0.10;;;;;;;;;;4956418;29;20905;-87
2022/10/30 06:16:27;;;;;;;0.10;0.10;;;;;;;;;;4972626;28;20405;-87
2022/10/30 06:18:53;;;;;;;0.00;0.00;;;;;;;;;;4956973;29;20509;-86
2022/10/30 06:21:19;;;;;;;0.10;0.10;;;;;;;;;;4972152;28;20417;-88
2022/10/30 06:23:47;;;;;;;0.30;0.30;;;;;;;;;;4955696;28;20421;-87
2022/10/30 06:26:13;;;;;;;0.10;0.10;;;;;;;;;;4969065;28;20426;-87
2022/10/30 06:28:39;;;;;;;0.10;0.10;;;;;;;;;;4969738;28;20438;-88
2022/10/30 06:31:05;;;;;;;0.13;0.13;;;;;;;;;;4969582;28;20966;-87
2022/10/30 06:33:31;;;;;;;0.10;0.10;;;;;;;;;;4953094;29;20417;-85
2022/10/30 06:35:57;;;;;;;0.00;0.00;;;;;;;;;;4954487;29;20428;-90
2022/10/30 06:38:23;;;;;;;0.43;0.43;;;;;;;;;;4968790;28;20870;-87
2022/10/30 06:40:49;;;;;;;0.17;0.17;;;;;;;;;;4953147;29;20480;-87
2022/10/30 06:43:15;;;;;;;0.10;0.10;;;;;;;;;;4969113;28;20432;-86
2022/10/30 06:45:41;;;;;;;0.10;0.10;;;;;;;;;;4953477;28;20409;-87
2022/10/30 06:48:08;;;;;;;0.10;0.10;;;;;;;;;;4953101;29;20575;-87
2022/10/30 06:50:34;;;;;;;0.60;0.60;;;;;;;;;;4953068;28;20618;-87
2022/10/30 06:53:00;;;;;;;0.10;0.10;;;;;;;;;;4954452;29;20474;-88
2022/10/30 06:55:26;;;;;;;0.10;0.10;;;;;;;;;;4951990;29;20750;-85
2022/10/30 06:57:53;;;;;;;0.10;0.10;;;;;;;;;;4952667;29;20496;-87
2022/10/30 07:00:19;;;;;;;1.10;0.90;;;;;;;;;;4952205;28;20421;-87
2022/10/30 07:02:54;;;;;;;0.10;0.10;;;;;;;;;;4952945;28;20421;-87
2022/10/30 07:05:20;;;;;;;0.10;0.10;;;;;;;;;;4968262;28;20889;-86
2022/10/30 07:07:46;;;;;;;0.10;0.10;;;;;;;;;;4952990;29;20422;-86
2022/10/30 07:10:12;;;;;;;0.15;0.15;;;;;;;;;;4952578;29;20414;-86
2022/10/30 07:12:38;;;;;;;0.10;0.10;;;;;;;;;;4936368;29;20473;-85
2022/10/30 07:15:04;;;;;;;0.10;0.10;;;;;;;;;;4967837;28;20547;-86
2022/10/30 07:17:30;;;;;;;0.20;0.20;;;;;;;;;;4952091;29;20434;-89
2022/10/30 07:19:56;;;;;;;0.40;0.40;;;;;;;;;;4954209;28;20777;-89
2022/10/30 07:22:22;;;;;;;0.10;0.10;;;;;;;;;;4952238;29;20425;-88
2022/10/30 07:24:48;;;;;;;0.30;0.30;;;;;;;;;;4968338;28;20785;-86
2022/10/30 07:27:14;;;;;;;0.30;0.30;;;;;;;;;;4952251;29;20774;-88
2022/10/30 07:29:40;;;;;;;0.10;0.10;;;;;;;;;;4951498;29;21085;-88
2022/10/30 07:32:06;;;;;;;0.35;0.35;;;;;;;;;;4952837;28;21028;-88
2022/10/30 07:34:33;;;;;;;0.10;0.10;;;;;;;;;;4951704;28;20750;-87
2022/10/30 07:36:59;;;;;;;0.10;0.10;;;;;;;;;;4951331;28;20516;-88
2022/10/30 07:39:25;;;;;;;0.10;0.10;;;;;;;;;;4951695;29;20420;-88
2022/10/30 07:41:51;;;;;;;0.30;0.30;;;;;;;;;;4952476;29;20956;-88
2022/10/30 07:44:17;;;;;;;0.60;0.60;;;;;;;;;;4952480;29;20920;-88
2022/10/30 07:46:43;;;;;;;0.60;0.60;;;;;;;;;;4951212;29;20545;-89
2022/10/30 07:49:09;;;;;;;0.60;0.60;;;;;;;;;;4967994;28;20449;-87
2022/10/30 07:51:35;;;;;;;0.20;0.20;;;;;;;;;;4952261;29;20424;-89
2022/10/30 07:54:01;;;;;;;0.10;0.10;;;;;;;;;;4967987;28;20904;-89
2022/10/30 07:56:27;;;;;;;0.20;0.20;;;;;;;;;;4966524;28;20844;-86
2022/10/30 07:58:53;;;;;;;0.13;0.13;;;;;;;;;;4951167;28;20905;-89
2022/10/30 08:01:19;;;;;;;0.25;0.25;;;;;;;;;;4952227;28;20927;-88
2022/10/30 08:03:45;;;;;;;0.52;0.52;;;;;;;;;;4951857;28;20461;-89
2022/10/30 08:06:12;;;;;;;0.10;0.10;;;;;;;;;;4951630;28;20425;-88
2022/10/30 08:08:38;;;;;;;0.70;0.70;;;;;;;;;;4966689;28;20527;-89
2022/10/30 08:11:04;;;;;;;0.35;0.35;;;;;;;;;;4951914;28;20512;-87
2022/10/30 08:13:30;;;;;;;0.10;0.10;;;;;;;;;;4967605;28;20429;-88
2022/10/30 08:15:56;;;;;;;0.90;0.60;;;;;;;;;;4952850;29;20414;-88
2022/10/30 08:18:22;;;;;;;0.10;0.10;;;;;;;;;;4951000;29;20667;-84
2022/10/30 08:20:49;;;;;;;0.10;0.10;;;;;;;;;;4951638;28;20426;-85
2022/10/30 08:23:16;;;;;;;0.10;0.10;;;;;;;;;;4951617;28;20482;-84
2022/10/30 08:25:42;;;;;;;0.10;0.10;;;;;;;;;;4951293;29;20879;-84
2022/10/30 08:28:10;;;;;;;1.08;1.00;;;;;;;;;;4951201;28;20418;-84
2022/10/30 08:30:37;;;;;;;0.10;0.10;;;;;;;;;;4966684;28;20893;-84
2022/10/30 08:33:07;;;;;;;0.10;0.10;;;;;;;;;;4951231;29;20512;-84
2022/10/30 08:35:33;;;;;;;0.50;0.50;;;;;;;;;;4967316;28;20421;-88
2022/10/30 08:38:01;;;;;;;0.10;0.10;;;;;;;;;;4951711;28;20424;-89
2022/10/30 08:40:28;;;;;;;0.40;0.40;;;;;;;;;;4951601;28;20476;-85
2022/10/30 08:42:54;;;;;;;0.20;0.20;;;;;;;;;;4967835;28;20416;-89
2022/10/30 08:45:21;;;;;;;0.10;0.10;;;;;;;;;;4952404;28;20426;-89
2022/10/30 08:47:47;;;;;;;0.30;0.30;;;;;;;;;;4966734;28;20425;-90
2022/10/30 08:50:14;;;;;;;0.10;0.10;;;;;;;;;;4951359;28;20528;-84
2022/10/30 08:52:40;;;;;;;0.05;0.05;;;;;;;;;;4966967;28;20414;-91
2022/10/30 08:55:06;;;;;;;0.10;0.10;;;;;;;;;;4950924;29;20888;-92
2022/10/30 08:57:36;;;;;;;0.90;0.70;;;;;;;;;;4951109;29;20414;-91
2022/10/30 09:00:02;;;;;;;0.20;0.10;;;;;;;;;;4951565;29;20754;-89
2022/10/30 09:02:28;;;;;;;0.20;0.20;;;;;;;;;;4951510;28;20894;-91
2022/10/30 09:04:54;;;;;;;0.47;0.32;;;;;;;;;;4968420;28;20429;-91
2022/10/30 09:07:20;;;;;;;0.40;0.40;;;;;;;;;;4968335;28;20444;-91
2022/10/30 09:09:46;;;;;;;0.30;0.30;;;;;;;;;;4951449;29;20493;-92
2022/10/30 09:12:12;;;;;;;0.13;0.13;;;;;;;;;;4954335;29;20417;-90
2022/10/30 09:14:38;;;;;;;0.40;0.40;;;;;;;;;;4952609;28;20488;-91
2022/10/30 09:17:04;;;;;;;0.10;0.10;;;;;;;;;;4969630;28;20497;-90
2022/10/30 09:19:30;;;;;;;0.10;0.10;;;;;;;;;;4969532;28;20766;-89
2022/10/30 09:21:56;;;;;;;0.10;0.10;;;;;;;;;;4952230;29;20417;-87
2022/10/30 09:24:22;;;;;;;0.10;0.10;;;;;;;;;;4967191;28;20429;-90
2022/10/30 09:26:48;;;;;;;0.50;0.50;;;;;;;;;;4951563;29;20422;-89
2022/10/30 09:29:14;;;;;;;0.40;0.40;;;;;;;;;;4951273;28;20479;-87
2022/10/30 09:31:40;;;;;;;0.30;0.30;;;;;;;;;;4951770;28;20418;-92
2022/10/30 09:34:07;;;;;;;0.60;0.60;;;;;;;;;;4966902;28;20571;-91
2022/10/30 09:36:33;;;;;;;0.82;0.82;;;;;;;;;;4966688;28;20485;-87
2022/10/30 09:38:59;;;;;;;0.40;0.40;;;;;;;;;;4950886;28;20426;-87
2022/10/30 09:41:35;;;;;;;0.40;0.32;;;;;;;;;;4950999;29;20413;-84
2022/10/30 09:44:08;;;;;;;0.68;0.57;;;;;;;;;;4950808;29;20444;-90
2022/10/30 09:46:51;;;;;;;0.20;0.20;;;;;;;;;;4967020;28;20909;-90
2022/10/30 09:49:22;;;;;;;0.40;0.30;;;;;;;;;;4950696;29;20796;-88
2022/10/30 09:52:18;;;;;;;1.02;0.93;;;;;;;;;;4950911;29;20421;-88
2022/10/30 09:54:50;;;;;;;0.40;0.40;;;;;;;;;;4965805;28;20986;-87
2022/10/30 09:57:21;;;;;;;0.43;0.43;;;;;;;;;;4950743;29;20469;-87
2022/10/30 09:59:50;;;;;;;0.82;0.70;;;;;;;;;;4951968;28;20416;-87
2022/10/30 10:02:25;;;;;;;0.40;0.40;;;;;;;;;;4955383;29;20751;-88
2022/10/30 10:04:54;;;;;;;0.40;0.30;;;;;;;;;;4970789;28;20476;-89
2022/10/30 10:07:26;;;;;;;0.50;0.38;;;;;;;;;;4970807;28;20431;-88
2022/10/30 10:09:55;;;;;;;1.03;0.70;;;;;;;;;;4954699;29;20437;-89
2022/10/30 10:12:25;;;;;;;0.30;0.30;;;;;;;;;;4955248;28;20421;-88
2022/10/30 10:14:52;;;;;;;1.10;0.90;;;;;;;;;;4954399;29;20422;-89
2022/10/30 10:17:27;;;;;;;0.70;0.70;;;;;;;;;;4971638;28;20461;-89
2022/10/30 10:20:01;;;;;;;0.80;0.60;;;;;;;;;;4954978;28;20481;-89
2022/10/30 10:22:35;;;;;;;1.35;1.15;;;;;;;;;;4972782;28;20429;-88
2022/10/30 10:25:02;;;;;;;5.07;4.77;;;;;;;;;;4970383;28;20426;-88
2022/10/30 10:27:34;;;;;;;9.25;8.82;;;;;;;;;;4955623;28;20425;-89
2022/10/30 10:30:03;;;;;;;17.90;17.00;;;;;;;;;;4970768;28;20434;-89
2022/10/30 10:32:48;;;;;;;13.48;12.27;;;;;;;;;;4971346;28;20473;-88
2022/10/30 10:35:24;;;;;;;27.13;25.73;;;;;;;;;;4972701;28;20436;-88
2022/10/30 10:37:50;;;;;;;30.77;29.17;;;;;;;;;;4971740;28;20426;-87
2022/10/30 10:40:22;;;;;;;49.38;46.83;;;;;;;;;;4971033;28;20424;-88
2022/10/30 10:43:07;;;;;;;98.10;93.07;;;;;;;;;;4969294;28;20526;-89
2022/10/30 10:45:33;;;;;;;107.77;102.23;;;;;;;;;;4970450;28;20428;-89
2022/10/30 10:48:03;;;;;;;159.07;150.63;;;;;;;;;;4969343;28;20418;-87
2022/10/30 10:50:32;;;;;;;134.13;127.18;;;;;;;;;;4971898;28;20414;-88
2022/10/30 10:53:14;;;;;;;134.35;127.40;;;;;;;;;;4976316;28;20456;-89
2022/10/30 10:55:41;;;;;;;119.40;113.22;;;;;;;;;;4972780;28;20426;-89
2022/10/30 10:58:26;;;;;;;0.80;0.60;;;;;;;;;;4954687;28;20429;-86
2022/10/30 11:00:52;;;;;;;16.88;16.00;;;;;;;;;;4956963;29;20508;-86
2022/10/30 11:03:25;;;;;;;3.35;3.17;;;;;;;;;;4972610;28;20425;-86
2022/10/30 11:05:53;;;;;;;19.73;18.70;;;;;;;;;;4958511;29;20490;-87
2022/10/30 11:08:27;;;;;;;19.88;18.83;;;;;;;;;;4976809;28;20429;-86
2022/10/30 11:11:00;;;;;;;35.92;34.05;;;;;;;;;;4955691;28;20425;-86
2022/10/30 11:13:31;;;;;;;36.33;34.50;;;;;;;;;;4973459;28;20430;-89
2022/10/30 11:16:06;;;;;;;35.08;33.22;;;;;;;;;;4975907;28;20590;-88
2022/10/30 11:18:33;;;;;;;47.85;45.45;;;;;;;;;;4974903;28;20426;-87
2022/10/30 11:21:07;;;;;;;6.05;5.65;;;;;;;;;;4972437;28;20517;-87
2022/10/30 11:23:37;;;;;;;56.78;53.88;;;;;;;;;;4972832;28;20440;-88
2022/10/30 11:26:04;;;;;;;63.80;60.40;;;;;;;;;;4975190;28;20759;-89
2022/10/30 11:28:33;;;;;;;14.65;13.95;;;;;;;;;;4973791;28;20496;-88
2022/10/30 11:31:18;;;;;;;15.33;14.50;;;;;;;;;;4982760;28;20917;-85
2022/10/30 11:33:44;;;;;;;35.88;34.03;;;;;;;;;;4976639;28;20449;-78
2022/10/30 11:36:13;;;;;;;134.82;127.72;;;;;;;;;;4973457;28;20445;-84
2022/10/30 11:38:39;;;;;;;105.70;100.30;;;;;;;;;;4975911;28;20426;-80
2022/10/30 11:41:08;;;;;;;128.20;121.50;;;;;;;;;;4975523;28;20557;-81
2022/10/30 11:43:34;;;;;;;151.43;143.60;;;;;;;;;;4977947;28;20424;-83
2022/10/30 11:46:01;;;;;;;130.95;124.10;;;;;;;;;;4969393;28;20469;-80
2022/10/30 11:48:29;;;;;;;115.75;109.82;;;;;;;;;;4941985;29;20425;-82
2022/10/30 11:50:59;;;;;;;75.47;71.47;;;;;;;;;;4978273;28;20428;-86
2022/10/30 11:53:30;;;;;;;69.93;66.33;;;;;;;;;;4975028;28;20513;-89
2022/10/30 11:55:57;;;;;;;90.00;85.32;;;;;;;;;;4980505;28;20422;-86
2022/10/30 11:58:30;;;;;;;109.57;103.75;;;;;;;;;;4986666;28;20409;-89
2022/10/30 12:01:00;;;;;;;99.55;94.45;;;;;;;;;;4986961;28;20425;-85
2022/10/30 12:03:37;;;;;;;92.53;87.70;;;;;;;;;;4985327;28;20417;-86
2022/10/30 12:06:15;;;;;;;120.67;114.47;;;;;;;;;;4976229;28;20457;-87
2022/10/30 12:08:46;;;;;;;128.35;121.70;;;;;;;;;;4968968;28;20549;-87
2022/10/30 12:11:12;;;;;;;38.45;36.40;;;;;;;;;;4968165;28;20429;-86
2022/10/30 12:13:39;;;;;;;56.90;53.97;;;;;;;;;;4968219;28;20592;-85
2022/10/30 12:16:23;;;;;;;39.92;37.83;;;;;;;;;;4968572;28;20422;-84
2022/10/30 12:19:00;;;;;;;69.60;66.07;;;;;;;;;;4969472;28;20449;-83
2022/10/30 12:21:27;;;;;;;0.08;0.08;;;;;;;;;;4967979;28;20505;-91
2022/10/30 12:24:05;;;;;;;0.10;0.10;;;;;;;;;;4967655;28;20437;-84
2022/10/30 12:26:32;;;;;;;0.10;0.10;;;;;;;;;;4951400;29;21036;-89
2022/10/30 12:29:00;;;;;;;0.10;0.10;;;;;;;;;;4968670;28;20434;-86
2022/10/30 12:31:35;;;;;;;0.10;0.10;;;;;;;;;;4953275;28;20422;-86
2022/10/30 12:34:20;;;;;;;0.10;0.10;;;;;;;;;;4951506;29;20428;-86
2022/10/30 12:36:51;;;;;;;0.10;0.10;;;;;;;;;;4951610;29;20489;-89
2022/10/30 12:39:21;;;;;;;0.10;0.10;;;;;;;;;;4967806;28;20909;-89
2022/10/30 12:42:00;;;;;;;0.20;0.20;;;;;;;;;;4952680;29;20424;-90
2022/10/30 12:44:37;;;;;;;0.30;0.30;;;;;;;;;;4953173;29;20777;-91
2022/10/30 12:47:08;;;;;;;0.10;0.10;;;;;;;;;;4968516;28;20453;-89
2022/10/30 12:49:46;;;;;;;0.10;0.10;;;;;;;;;;4969177;28;20434;-89
2022/10/30 12:52:18;;;;;;;0.10;0.10;;;;;;;;;;4952272;29;20414;-87
2022/10/30 12:55:08;;;;;;;0.30;0.30;;;;;;;;;;4951087;29;20441;-86
2022/10/30 12:57:40;;;;;;;0.00;0.00;;;;;;;;;;4952696;28;20426;-88
2022/10/30 13:00:09;;;;;;;0.10;0.10;;;;;;;;;;4952719;29;20425;-88
2022/10/30 13:02:53;;;;;;;0.10;0.10;;;;;;;;;;4967870;28;20813;-81
2022/10/30 13:05:19;;;;;;;0.20;0.20;;;;;;;;;;4952389;29;20433;-87
2022/10/30 13:07:49;;;;;;;0.10;0.10;;;;;;;;;;4951785;29;20901;-88
2022/10/30 13:10:27;;;;;;;0.10;0.10;;;;;;;;;;4952741;29;20528;-85
2022/10/30 13:12:56;;;;;;;0.30;0.30;;;;;;;;;;4952305;28;20426;-93
2022/10/30 13:15:31;;;;;;;0.10;0.10;;;;;;;;;;4968663;28;20481;-90
2022/10/30 13:17:58;;;;;;;0.10;0.10;;;;;;;;;;4951761;29;20460;-86
2022/10/30 13:20:26;;;;;;;0.57;0.47;;;;;;;;;;4967418;28;20452;-87
2022/10/30 13:22:56;;;;;;;0.10;0.10;;;;;;;;;;4968370;28;20413;-86
2022/10/30 13:25:29;;;;;;;0.40;0.40;;;;;;;;;;4952239;29;21070;-85
2022/10/30 13:27:58;;;;;;;0.10;0.10;;;;;;;;;;4952206;29;20417;-86
2022/10/30 13:30:33;;;;;;;0.10;0.10;;;;;;;;;;4951760;29;20661;-86
2022/10/30 13:33:15;;;;;;;0.00;0.00;;;;;;;;;;4952686;28;20422;-86
2022/10/30 13:35:41;;;;;;;0.30;0.30;;;;;;;;;;4971436;28;20901;-86
2022/10/30 13:38:25;;;;;;;0.10;0.10;;;;;;;;;;4955193;29;20501;-85
2022/10/30 13:41:04;;;;;;;0.10;0.10;;;;;;;;;;4956510;29;20422;-86
2022/10/30 13:43:37;;;;;;;1.20;1.10;;;;;;;;;;4955526;29;20418;-86
2022/10/30 13:46:21;;;;;;;0.17;0.17;;;;;;;;;;4956615;29;20429;-86
2022/10/30 13:48:54;;;;;;;7.78;7.40;;;;;;;;;;4955763;29;20505;-86
2022/10/30 13:51:26;;;;;;;0.57;0.57;;;;;;;;;;4972479;28;20476;-86
2022/10/30 13:54:14;;;;;;;9.65;9.18;;;;;;;;;;4955623;29;20449;-86
2022/10/30 13:56:41;;;;;;;2.42;2.33;;;;;;;;;;4972116;28;20428;-86
2022/10/30 13:59:16;;;;;;;13.25;12.55;;;;;;;;;;4970642;28;20983;-84
2022/10/30 14:02:02;;;;;;;0.10;0.10;;;;;;;;;;4970257;28;20414;-84
2022/10/30 14:04:33;;;;;;;2.38;2.28;;;;;;;;;;4954912;29;20417;-90
2022/10/30 14:07:16;;;;;;;14.60;13.90;;;;;;;;;;4956263;29;20425;-87
2022/10/30 14:09:54;;;;;;;13.50;12.75;;;;;;;;;;4971424;28;20472;-90
2022/10/30 14:12:40;;;;;;;7.00;6.57;;;;;;;;;;4970040;28;20508;-91
2022/10/30 14:15:15;;;;;;;27.33;25.95;;;;;;;;;;4954110;29;20432;-90
2022/10/30 14:18:01;;;;;;;15.25;14.43;;;;;;;;;;4970948;28;20404;-92
2022/10/30 14:20:27;;;;;;;11.77;11.18;;;;;;;;;;4954122;28;20453;-92
2022/10/30 14:23:26;;;;;;;25.15;23.88;;;;;;;;;;4970116;28;20457;-92
2022/10/30 14:26:01;;;;;;;0.50;0.35;;;;;;;;;;4954091;29;20418;-94
2022/10/30 14:28:28;;;;;;;0.20;0.20;;;;;;;;;;4955120;29;20860;-92
2022/10/30 14:31:04;;;;;;;0.10;0.10;;;;;;;;;;4953239;29;20417;-92
2022/10/30 14:33:39;;;;;;;0.50;0.40;;;;;;;;;;4969876;28;20418;-92
2022/10/30 14:36:19;;;;;;;0.30;0.30;;;;;;;;;;4956305;29;20817;-92
2022/10/30 14:39:11;;;;;;;13.60;12.88;;;;;;;;;;4955075;29;20509;-91
2022/10/30 14:41:44;;;;;;;11.55;10.93;;;;;;;;;;4953024;29;20878;-90
2022/10/30 14:44:14;;;;;;;8.48;8.05;;;;;;;;;;4969655;28;20417;-89
2022/10/30 14:46:57;;;;;;;8.80;8.27;;;;;;;;;;4968486;28;20439;-90
2022/10/30 14:49:36;;;;;;;16.23;15.27;;;;;;;;;;4969073;28;20437;-84
2022/10/30 14:52:26;;;;;;;8.85;8.38;;;;;;;;;;4954968;28;20738;-85